sensor_id;sensor_type;location;lat;lon;timestamp;P1;durP1;ratioP1;P2;durP2;ratioP2
58083;SDS011;43882;51.550;11.858;2024-02-15T00:00:12;16.05;;;5.38;;
58083;SDS011;43882;51.550;11.858;2024-02-15T00:02:41;16.58;;;4.72;;
58083;SDS011;43882;51.550;11.858;2024-02-15T00:05:09;16.55;;;5.30;;
58083;SDS011;43882;51.550;11.858;2024-02-15T00:07:36;18.48;;;5.60;;
58083;SDS011;43882;51.550;11.858;2024-02-15T00:10:02;17.33;;;5.43;;
58083;SDS011;43882;51.550;11.858;2024-02-15T00:12:29;15.85;;;5.22;;
58083;SDS011;43882;51.550;11.858;2024-02-15T00:14:56;18.25;;;6.15;;
58083;SDS011;43882;51.550;11.858;2024-02-15T00:17:23;15.77;;;4.90;;
58083;SDS011;43882;51.550;11.858;2024-02-15T00:19:51;16.70;;;5.53;;
58083;SDS011;43882;51.550;11.858;2024-02-15T00:22:17;16.63;;;5.43;;
58083;SDS011;43882;51.550;11.858;2024-02-15T00:24:44;16.45;;;5.50;;
58083;SDS011;43882;51.550;11.858;2024-02-15T00:27:10;15.50;;;4.90;;
58083;SDS011;43882;51.550;11.858;2024-02-15T00:29:36;16.42;;;5.25;;
58083;SDS011;43882;51.550;11.858;2024-02-15T00:32:02;15.43;;;4.97;;
58083;SDS011;43882;51.550;11.858;2024-02-15T00:34:31;17.10;;;5.00;;
58083;SDS011;43882;51.550;11.858;2024-02-15T00:36:57;16.02;;;5.47;;
58083;SDS011;43882;51.550;11.858;2024-02-15T00:39:23;15.90;;;5.13;;
58083;SDS011;43882;51.550;11.858;2024-02-15T00:41:49;16.55;;;5.40;;
58083;SDS011;43882;51.550;11.858;2024-02-15T00:44:15;16.70;;;4.90;;
58083;SDS011;43882;51.550;11.858;2024-02-15T00:46:42;16.52;;;5.60;;
58083;SDS011;43882;51.550;11.858;2024-02-15T00:49:08;16.48;;;5.20;;
58083;SDS011;43882;51.550;11.858;2024-02-15T00:51:36;16.17;;;5.20;;
58083;SDS011;43882;51.550;11.858;2024-02-15T00:54:02;15.95;;;5.00;;
58083;SDS011;43882;51.550;11.858;2024-02-15T00:56:28;15.52;;;5.35;;
58083;SDS011;43882;51.550;11.858;2024-02-15T00:58:56;14.73;;;4.68;;
58083;SDS011;43882;51.550;11.858;2024-02-15T01:01:23;15.93;;;5.35;;
58083;SDS011;43882;51.550;11.858;2024-02-15T01:03:49;17.02;;;5.60;;
58083;SDS011;43882;51.550;11.858;2024-02-15T01:06:16;17.23;;;5.13;;
58083;SDS011;43882;51.550;11.858;2024-02-15T01:08:42;15.73;;;4.75;;
58083;SDS011;43882;51.550;11.858;2024-02-15T01:11:08;16.25;;;5.15;;
58083;SDS011;43882;51.550;11.858;2024-02-15T01:13:34;15.65;;;4.57;;
58083;SDS011;43882;51.550;11.858;2024-02-15T01:16:00;15.98;;;4.85;;
58083;SDS011;43882;51.550;11.858;2024-02-15T01:18:29;16.17;;;4.90;;
58083;SDS011;43882;51.550;11.858;2024-02-15T01:20:56;14.32;;;4.40;;
58083;SDS011;43882;51.550;11.858;2024-02-15T01:23:23;16.00;;;4.80;;
58083;SDS011;43882;51.550;11.858;2024-02-15T01:25:49;16.65;;;4.93;;
58083;SDS011;43882;51.550;11.858;2024-02-15T01:28:15;14.73;;;4.65;;
58083;SDS011;43882;51.550;11.858;2024-02-15T01:30:41;18.75;;;5.35;;
58083;SDS011;43882;51.550;11.858;2024-02-15T01:33:09;17.45;;;4.78;;
58083;SDS011;43882;51.550;11.858;2024-02-15T01:35:38;15.68;;;4.93;;
58083;SDS011;43882;51.550;11.858;2024-02-15T01:38:04;17.17;;;4.85;;
58083;SDS011;43882;51.550;11.858;2024-02-15T01:40:31;16.00;;;4.50;;
58083;SDS011;43882;51.550;11.858;2024-02-15T01:42:57;15.35;;;4.75;;
58083;SDS011;43882;51.550;11.858;2024-02-15T01:45:23;16.88;;;4.65;;
58083;SDS011;43882;51.550;11.858;2024-02-15T01:47:50;16.70;;;5.20;;
58083;SDS011;43882;51.550;11.858;2024-02-15T01:50:17;15.88;;;4.70;;
58083;SDS011;43882;51.550;11.858;2024-02-15T01:52:44;16.92;;;5.28;;
58083;SDS011;43882;51.550;11.858;2024-02-15T01:55:12;17.20;;;5.10;;
58083;SDS011;43882;51.550;11.858;2024-02-15T01:57:40;17.65;;;5.80;;
58083;SDS011;43882;51.550;11.858;2024-02-15T02:00:11;17.67;;;5.80;;
58083;SDS011;43882;51.550;11.858;2024-02-15T02:02:38;17.23;;;5.38;;
58083;SDS011;43882;51.550;11.858;2024-02-15T02:05:06;17.13;;;5.20;;
58083;SDS011;43882;51.550;11.858;2024-02-15T02:07:33;17.88;;;6.03;;
58083;SDS011;43882;51.550;11.858;2024-02-15T02:09:59;16.88;;;5.45;;
58083;SDS011;43882;51.550;11.858;2024-02-15T02:12:26;19.17;;;5.75;;
58083;SDS011;43882;51.550;11.858;2024-02-15T02:14:52;18.10;;;5.78;;
58083;SDS011;43882;51.550;11.858;2024-02-15T02:17:21;18.10;;;5.55;;
58083;SDS011;43882;51.550;11.858;2024-02-15T02:19:48;18.30;;;5.70;;
58083;SDS011;43882;51.550;11.858;2024-02-15T02:22:17;17.52;;;5.65;;
58083;SDS011;43882;51.550;11.858;2024-02-15T02:24:53;17.35;;;5.55;;
58083;SDS011;43882;51.550;11.858;2024-02-15T02:27:21;16.13;;;5.35;;
58083;SDS011;43882;51.550;11.858;2024-02-15T02:29:47;16.70;;;5.50;;
58083;SDS011;43882;51.550;11.858;2024-02-15T02:32:14;18.42;;;5.90;;
58083;SDS011;43882;51.550;11.858;2024-02-15T02:34:40;18.02;;;6.03;;
58083;SDS011;43882;51.550;11.858;2024-02-15T02:37:06;17.48;;;6.30;;
58083;SDS011;43882;51.550;11.858;2024-02-15T02:39:33;17.67;;;5.72;;
58083;SDS011;43882;51.550;11.858;2024-02-15T02:41:59;17.92;;;5.88;;
58083;SDS011;43882;51.550;11.858;2024-02-15T02:44:25;17.27;;;5.90;;
58083;SDS011;43882;51.550;11.858;2024-02-15T02:46:51;17.98;;;5.75;;
58083;SDS011;43882;51.550;11.858;2024-02-15T02:49:17;16.80;;;5.35;;
58083;SDS011;43882;51.550;11.858;2024-02-15T02:51:43;17.08;;;5.72;;
58083;SDS011;43882;51.550;11.858;2024-02-15T02:54:10;16.83;;;5.25;;
58083;SDS011;43882;51.550;11.858;2024-02-15T02:56:36;16.30;;;5.70;;
58083;SDS011;43882;51.550;11.858;2024-02-15T02:59:02;16.55;;;5.65;;
58083;SDS011;43882;51.550;11.858;2024-02-15T03:01:28;17.58;;;6.10;;
58083;SDS011;43882;51.550;11.858;2024-02-15T03:03:55;16.85;;;5.40;;
58083;SDS011;43882;51.550;11.858;2024-02-15T03:06:22;18.15;;;6.30;;
58083;SDS011;43882;51.550;11.858;2024-02-15T03:08:50;18.02;;;5.55;;
58083;SDS011;43882;51.550;11.858;2024-02-15T03:11:22;17.85;;;5.65;;
58083;SDS011;43882;51.550;11.858;2024-02-15T03:13:48;17.45;;;5.72;;
58083;SDS011;43882;51.550;11.858;2024-02-15T03:16:14;17.00;;;5.63;;
58083;SDS011;43882;51.550;11.858;2024-02-15T03:18:41;17.00;;;5.85;;
58083;SDS011;43882;51.550;11.858;2024-02-15T03:21:08;17.15;;;5.55;;
58083;SDS011;43882;51.550;11.858;2024-02-15T03:23:35;18.00;;;5.95;;
58083;SDS011;43882;51.550;11.858;2024-02-15T03:26:02;17.67;;;6.28;;
58083;SDS011;43882;51.550;11.858;2024-02-15T03:28:31;17.33;;;6.38;;
58083;SDS011;43882;51.550;11.858;2024-02-15T03:30:57;17.23;;;5.53;;
58083;SDS011;43882;51.550;11.858;2024-02-15T03:33:25;17.95;;;5.82;;
58083;SDS011;43882;51.550;11.858;2024-02-15T03:35:57;19.70;;;6.20;;
58083;SDS011;43882;51.550;11.858;2024-02-15T03:38:25;17.95;;;5.55;;
58083;SDS011;43882;51.550;11.858;2024-02-15T03:40:54;17.83;;;5.90;;
58083;SDS011;43882;51.550;11.858;2024-02-15T03:43:21;18.17;;;6.07;;
58083;SDS011;43882;51.550;11.858;2024-02-15T03:45:48;17.08;;;5.88;;
58083;SDS011;43882;51.550;11.858;2024-02-15T03:48:14;18.70;;;6.22;;
58083;SDS011;43882;51.550;11.858;2024-02-15T03:50:41;17.70;;;6.28;;
58083;SDS011;43882;51.550;11.858;2024-02-15T03:53:09;19.17;;;6.95;;
58083;SDS011;43882;51.550;11.858;2024-02-15T03:55:36;18.23;;;6.47;;
58083;SDS011;43882;51.550;11.858;2024-02-15T03:58:02;19.05;;;6.03;;
58083;SDS011;43882;51.550;11.858;2024-02-15T04:00:28;19.33;;;6.70;;
58083;SDS011;43882;51.550;11.858;2024-02-15T04:02:54;18.27;;;6.43;;
58083;SDS011;43882;51.550;11.858;2024-02-15T04:05:21;18.75;;;6.57;;
58083;SDS011;43882;51.550;11.858;2024-02-15T04:07:48;21.02;;;6.78;;
58083;SDS011;43882;51.550;11.858;2024-02-15T04:10:14;18.80;;;6.35;;
58083;SDS011;43882;51.550;11.858;2024-02-15T04:12:43;19.50;;;6.60;;
58083;SDS011;43882;51.550;11.858;2024-02-15T04:15:09;20.10;;;6.57;;
58083;SDS011;43882;51.550;11.858;2024-02-15T04:17:41;18.88;;;6.03;;
58083;SDS011;43882;51.550;11.858;2024-02-15T04:20:09;19.67;;;6.65;;
58083;SDS011;43882;51.550;11.858;2024-02-15T04:22:36;18.08;;;6.05;;
58083;SDS011;43882;51.550;11.858;2024-02-15T04:25:06;18.52;;;5.85;;
58083;SDS011;43882;51.550;11.858;2024-02-15T04:27:34;18.00;;;6.15;;
58083;SDS011;43882;51.550;11.858;2024-02-15T04:30:01;18.20;;;6.60;;
58083;SDS011;43882;51.550;11.858;2024-02-15T04:32:27;17.23;;;6.13;;
58083;SDS011;43882;51.550;11.858;2024-02-15T04:34:54;20.52;;;6.40;;
58083;SDS011;43882;51.550;11.858;2024-02-15T04:37:20;18.95;;;6.35;;
58083;SDS011;43882;51.550;11.858;2024-02-15T04:39:48;20.30;;;6.18;;
58083;SDS011;43882;51.550;11.858;2024-02-15T04:42:14;18.33;;;6.43;;
58083;SDS011;43882;51.550;11.858;2024-02-15T04:44:42;18.63;;;6.53;;
58083;SDS011;43882;51.550;11.858;2024-02-15T04:47:09;18.58;;;6.45;;
58083;SDS011;43882;51.550;11.858;2024-02-15T04:49:35;17.88;;;5.93;;
58083;SDS011;43882;51.550;11.858;2024-02-15T04:52:04;21.42;;;6.50;;
58083;SDS011;43882;51.550;11.858;2024-02-15T04:54:31;18.42;;;6.22;;
58083;SDS011;43882;51.550;11.858;2024-02-15T04:56:57;20.50;;;6.95;;
58083;SDS011;43882;51.550;11.858;2024-02-15T04:59:24;19.60;;;6.60;;
58083;SDS011;43882;51.550;11.858;2024-02-15T05:01:54;18.55;;;6.47;;
58083;SDS011;43882;51.550;11.858;2024-02-15T05:04:21;20.05;;;6.75;;
58083;SDS011;43882;51.550;11.858;2024-02-15T05:06:49;20.52;;;7.38;;
58083;SDS011;43882;51.550;11.858;2024-02-15T05:09:16;19.38;;;6.50;;
58083;SDS011;43882;51.550;11.858;2024-02-15T05:11:43;20.48;;;6.82;;
58083;SDS011;43882;51.550;11.858;2024-02-15T05:14:13;19.48;;;6.88;;
58083;SDS011;43882;51.550;11.858;2024-02-15T05:16:44;19.13;;;6.63;;
58083;SDS011;43882;51.550;11.858;2024-02-15T05:19:12;20.00;;;6.45;;
58083;SDS011;43882;51.550;11.858;2024-02-15T05:21:39;19.70;;;6.72;;
58083;SDS011;43882;51.550;11.858;2024-02-15T05:24:05;20.05;;;6.80;;
58083;SDS011;43882;51.550;11.858;2024-02-15T05:26:32;20.38;;;6.15;;
58083;SDS011;43882;51.550;11.858;2024-02-15T05:28:58;20.17;;;6.68;;
58083;SDS011;43882;51.550;11.858;2024-02-15T05:31:24;19.55;;;6.45;;
58083;SDS011;43882;51.550;11.858;2024-02-15T05:33:51;22.05;;;7.35;;
58083;SDS011;43882;51.550;11.858;2024-02-15T05:36:18;20.05;;;7.03;;
58083;SDS011;43882;51.550;11.858;2024-02-15T05:38:46;19.95;;;6.60;;
58083;SDS011;43882;51.550;11.858;2024-02-15T05:41:14;17.70;;;5.93;;
58083;SDS011;43882;51.550;11.858;2024-02-15T05:43:41;20.23;;;6.55;;
58083;SDS011;43882;51.550;11.858;2024-02-15T05:46:07;20.27;;;6.93;;
58083;SDS011;43882;51.550;11.858;2024-02-15T05:48:34;21.10;;;7.32;;
58083;SDS011;43882;51.550;11.858;2024-02-15T05:51:04;21.17;;;7.25;;
58083;SDS011;43882;51.550;11.858;2024-02-15T05:53:34;20.23;;;6.95;;
58083;SDS011;43882;51.550;11.858;2024-02-15T05:56:07;22.13;;;6.88;;
58083;SDS011;43882;51.550;11.858;2024-02-15T05:58:34;19.98;;;7.00;;
58083;SDS011;43882;51.550;11.858;2024-02-15T06:01:01;20.05;;;6.85;;
58083;SDS011;43882;51.550;11.858;2024-02-15T06:03:30;20.92;;;7.40;;
58083;SDS011;43882;51.550;11.858;2024-02-15T06:05:58;21.55;;;7.22;;
58083;SDS011;43882;51.550;11.858;2024-02-15T06:08:27;21.02;;;8.20;;
58083;SDS011;43882;51.550;11.858;2024-02-15T06:10:54;19.98;;;6.55;;
58083;SDS011;43882;51.550;11.858;2024-02-15T06:13:21;21.35;;;7.53;;
58083;SDS011;43882;51.550;11.858;2024-02-15T06:15:48;21.90;;;7.63;;
58083;SDS011;43882;51.550;11.858;2024-02-15T06:18:21;21.45;;;7.43;;
58083;SDS011;43882;51.550;11.858;2024-02-15T06:20:53;24.02;;;8.52;;
58083;SDS011;43882;51.550;11.858;2024-02-15T06:23:22;20.80;;;7.07;;
58083;SDS011;43882;51.550;11.858;2024-02-15T06:25:50;20.48;;;7.45;;
58083;SDS011;43882;51.550;11.858;2024-02-15T06:28:18;21.05;;;7.28;;
58083;SDS011;43882;51.550;11.858;2024-02-15T06:31:05;20.25;;;6.72;;
58083;SDS011;43882;51.550;11.858;2024-02-15T06:33:53;21.27;;;7.25;;
58083;SDS011;43882;51.550;11.858;2024-02-15T06:36:48;20.52;;;6.97;;
58083;SDS011;43882;51.550;11.858;2024-02-15T06:39:34;20.08;;;6.68;;
58083;SDS011;43882;51.550;11.858;2024-02-15T06:42:03;18.77;;;6.25;;
58083;SDS011;43882;51.550;11.858;2024-02-15T06:44:29;19.58;;;6.60;;
58083;SDS011;43882;51.550;11.858;2024-02-15T06:46:55;21.80;;;6.68;;
58083;SDS011;43882;51.550;11.858;2024-02-15T06:49:23;21.02;;;7.60;;
58083;SDS011;43882;51.550;11.858;2024-02-15T06:51:52;20.58;;;6.10;;
58083;SDS011;43882;51.550;11.858;2024-02-15T06:54:19;20.23;;;7.18;;
58083;SDS011;43882;51.550;11.858;2024-02-15T06:56:45;19.48;;;6.40;;
58083;SDS011;43882;51.550;11.858;2024-02-15T06:59:12;20.75;;;6.70;;
58083;SDS011;43882;51.550;11.858;2024-02-15T07:01:45;22.88;;;8.00;;
58083;SDS011;43882;51.550;11.858;2024-02-15T07:04:11;20.92;;;7.45;;
58083;SDS011;43882;51.550;11.858;2024-02-15T07:06:37;19.75;;;7.00;;
58083;SDS011;43882;51.550;11.858;2024-02-15T07:09:04;20.10;;;6.70;;
58083;SDS011;43882;51.550;11.858;2024-02-15T07:11:34;20.52;;;6.80;;
58083;SDS011;43882;51.550;11.858;2024-02-15T07:14:01;19.02;;;7.10;;
58083;SDS011;43882;51.550;11.858;2024-02-15T07:16:27;21.55;;;6.75;;
58083;SDS011;43882;51.550;11.858;2024-02-15T07:18:54;21.02;;;6.90;;
58083;SDS011;43882;51.550;11.858;2024-02-15T07:21:20;20.48;;;6.72;;
58083;SDS011;43882;51.550;11.858;2024-02-15T07:23:51;19.90;;;6.63;;
58083;SDS011;43882;51.550;11.858;2024-02-15T07:26:19;21.10;;;7.07;;
58083;SDS011;43882;51.550;11.858;2024-02-15T07:28:49;19.90;;;6.90;;
58083;SDS011;43882;51.550;11.858;2024-02-15T07:31:22;20.25;;;6.72;;
58083;SDS011;43882;51.550;11.858;2024-02-15T07:33:51;21.13;;;7.22;;
58083;SDS011;43882;51.550;11.858;2024-02-15T07:36:19;20.25;;;7.38;;
58083;SDS011;43882;51.550;11.858;2024-02-15T07:38:46;20.63;;;6.88;;
58083;SDS011;43882;51.550;11.858;2024-02-15T07:41:13;20.67;;;6.65;;
58083;SDS011;43882;51.550;11.858;2024-02-15T07:43:40;23.33;;;7.28;;
58083;SDS011;43882;51.550;11.858;2024-02-15T07:46:06;20.73;;;7.10;;
58083;SDS011;43882;51.550;11.858;2024-02-15T07:48:32;21.98;;;7.75;;
58083;SDS011;43882;51.550;11.858;2024-02-15T07:50:58;18.98;;;6.20;;
58083;SDS011;43882;51.550;11.858;2024-02-15T07:53:25;20.58;;;6.93;;
58083;SDS011;43882;51.550;11.858;2024-02-15T07:55:51;21.70;;;7.28;;
58083;SDS011;43882;51.550;11.858;2024-02-15T07:58:17;21.13;;;6.90;;
58083;SDS011;43882;51.550;11.858;2024-02-15T08:00:44;21.27;;;7.55;;
58083;SDS011;43882;51.550;11.858;2024-02-15T08:03:10;19.65;;;6.75;;
58083;SDS011;43882;51.550;11.858;2024-02-15T08:05:37;21.48;;;7.20;;
58083;SDS011;43882;51.550;11.858;2024-02-15T08:08:03;20.65;;;7.32;;
58083;SDS011;43882;51.550;11.858;2024-02-15T08:10:29;20.48;;;7.10;;
58083;SDS011;43882;51.550;11.858;2024-02-15T08:12:55;22.10;;;6.82;;
58083;SDS011;43882;51.550;11.858;2024-02-15T08:15:23;19.02;;;6.57;;
58083;SDS011;43882;51.550;11.858;2024-02-15T08:17:52;18.70;;;6.03;;
58083;SDS011;43882;51.550;11.858;2024-02-15T08:20:20;20.08;;;6.90;;
58083;SDS011;43882;51.550;11.858;2024-02-15T08:22:47;20.35;;;6.43;;
58083;SDS011;43882;51.550;11.858;2024-02-15T08:25:13;25.67;;;7.45;;
58083;SDS011;43882;51.550;11.858;2024-02-15T08:27:43;18.80;;;6.65;;
58083;SDS011;43882;51.550;11.858;2024-02-15T08:30:14;19.02;;;6.78;;
58083;SDS011;43882;51.550;11.858;2024-02-15T08:32:42;18.77;;;6.57;;
58083;SDS011;43882;51.550;11.858;2024-02-15T08:35:08;20.15;;;7.30;;
58083;SDS011;43882;51.550;11.858;2024-02-15T08:37:36;20.60;;;6.60;;
58083;SDS011;43882;51.550;11.858;2024-02-15T08:40:03;19.25;;;6.57;;
58083;SDS011;43882;51.550;11.858;2024-02-15T08:42:41;18.70;;;6.47;;
58083;SDS011;43882;51.550;11.858;2024-02-15T08:45:07;19.90;;;6.10;;
58083;SDS011;43882;51.550;11.858;2024-02-15T08:47:41;19.17;;;6.72;;
58083;SDS011;43882;51.550;11.858;2024-02-15T08:50:08;20.38;;;6.38;;
58083;SDS011;43882;51.550;11.858;2024-02-15T08:52:37;17.60;;;6.35;;
58083;SDS011;43882;51.550;11.858;2024-02-15T08:55:07;21.15;;;6.93;;
58083;SDS011;43882;51.550;11.858;2024-02-15T08:57:34;18.92;;;6.40;;
58083;SDS011;43882;51.550;11.858;2024-02-15T09:00:04;18.13;;;6.47;;
58083;SDS011;43882;51.550;11.858;2024-02-15T09:02:38;18.83;;;6.75;;
58083;SDS011;43882;51.550;11.858;2024-02-15T09:05:05;18.45;;;6.20;;
58083;SDS011;43882;51.550;11.858;2024-02-15T09:07:31;18.83;;;6.32;;
58083;SDS011;43882;51.550;11.858;2024-02-15T09:09:58;19.85;;;6.25;;
58083;SDS011;43882;51.550;11.858;2024-02-15T09:12:24;18.63;;;6.30;;
58083;SDS011;43882;51.550;11.858;2024-02-15T09:14:50;17.52;;;6.07;;
58083;SDS011;43882;51.550;11.858;2024-02-15T09:17:16;18.88;;;6.20;;
58083;SDS011;43882;51.550;11.858;2024-02-15T09:19:42;17.48;;;5.53;;
58083;SDS011;43882;51.550;11.858;2024-02-15T09:22:08;19.75;;;6.50;;
58083;SDS011;43882;51.550;11.858;2024-02-15T09:24:34;18.02;;;5.80;;
58083;SDS011;43882;51.550;11.858;2024-02-15T09:27:02;16.60;;;5.82;;
58083;SDS011;43882;51.550;11.858;2024-02-15T09:29:28;16.45;;;5.28;;
58083;SDS011;43882;51.550;11.858;2024-02-15T09:31:55;18.42;;;6.03;;
58083;SDS011;43882;51.550;11.858;2024-02-15T09:34:22;17.45;;;6.05;;
58083;SDS011;43882;51.550;11.858;2024-02-15T09:36:49;17.40;;;6.20;;
58083;SDS011;43882;51.550;11.858;2024-02-15T09:39:15;18.25;;;7.28;;
58083;SDS011;43882;51.550;11.858;2024-02-15T09:41:42;20.67;;;7.22;;
58083;SDS011;43882;51.550;11.858;2024-02-15T09:44:09;20.70;;;7.25;;
58083;SDS011;43882;51.550;11.858;2024-02-15T09:46:43;31.65;;;16.13;;
58083;SDS011;43882;51.550;11.858;2024-02-15T09:49:12;18.42;;;6.70;;
58083;SDS011;43882;51.550;11.858;2024-02-15T09:51:39;17.15;;;6.10;;
58083;SDS011;43882;51.550;11.858;2024-02-15T09:54:05;27.55;;;10.52;;
58083;SDS011;43882;51.550;11.858;2024-02-15T09:56:34;23.40;;;8.88;;
58083;SDS011;43882;51.550;11.858;2024-02-15T09:59:00;18.60;;;7.57;;
58083;SDS011;43882;51.550;11.858;2024-02-15T10:01:27;17.75;;;7.70;;
58083;SDS011;43882;51.550;11.858;2024-02-15T10:03:57;15.70;;;5.00;;
58083;SDS011;43882;51.550;11.858;2024-02-15T10:06:24;17.25;;;6.43;;
58083;SDS011;43882;51.550;11.858;2024-02-15T10:08:52;17.23;;;6.22;;
58083;SDS011;43882;51.550;11.858;2024-02-15T10:11:18;15.40;;;5.20;;
58083;SDS011;43882;51.550;11.858;2024-02-15T10:13:45;15.10;;;5.07;;
58083;SDS011;43882;51.550;11.858;2024-02-15T10:16:15;18.55;;;6.15;;
58083;SDS011;43882;51.550;11.858;2024-02-15T10:18:44;17.05;;;4.88;;
58083;SDS011;43882;51.550;11.858;2024-02-15T10:21:23;16.00;;;5.13;;
58083;SDS011;43882;51.550;11.858;2024-02-15T10:24:05;15.10;;;4.53;;
58083;SDS011;43882;51.550;11.858;2024-02-15T10:26:32;16.00;;;4.55;;
58083;SDS011;43882;51.550;11.858;2024-02-15T10:29:06;14.85;;;4.15;;
58083;SDS011;43882;51.550;11.858;2024-02-15T10:31:52;13.68;;;4.32;;
58083;SDS011;43882;51.550;11.858;2024-02-15T10:34:19;14.98;;;4.03;;
58083;SDS011;43882;51.550;11.858;2024-02-15T10:36:46;14.52;;;4.60;;
58083;SDS011;43882;51.550;11.858;2024-02-15T10:39:13;15.00;;;4.03;;
58083;SDS011;43882;51.550;11.858;2024-02-15T10:41:44;15.60;;;4.25;;
58083;SDS011;43882;51.550;11.858;2024-02-15T10:44:20;15.27;;;4.40;;
58083;SDS011;43882;51.550;11.858;2024-02-15T10:46:48;15.38;;;4.40;;
58083;SDS011;43882;51.550;11.858;2024-02-15T10:49:22;15.27;;;4.43;;
58083;SDS011;43882;51.550;11.858;2024-02-15T10:51:56;15.85;;;4.20;;
58083;SDS011;43882;51.550;11.858;2024-02-15T10:57:12;21.08;;;5.38;;
58083;SDS011;43882;51.550;11.858;2024-02-15T10:59:43;16.27;;;5.10;;
58083;SDS011;43882;51.550;11.858;2024-02-15T11:02:26;15.30;;;4.22;;
58083;SDS011;43882;51.550;11.858;2024-02-15T11:04:58;14.13;;;4.13;;
58083;SDS011;43882;51.550;11.858;2024-02-15T11:07:29;16.65;;;4.20;;
58083;SDS011;43882;51.550;11.858;2024-02-15T11:09:55;14.60;;;3.80;;
58083;SDS011;43882;51.550;11.858;2024-02-15T11:12:22;14.27;;;3.90;;
58083;SDS011;43882;51.550;11.858;2024-02-15T11:14:50;13.20;;;3.70;;
58083;SDS011;43882;51.550;11.858;2024-02-15T11:20:05;10.55;;;2.92;;
58083;SDS011;43882;51.550;11.858;2024-02-15T11:22:34;13.10;;;3.28;;
58083;SDS011;43882;51.550;11.858;2024-02-15T11:25:07;12.30;;;3.05;;
58083;SDS011;43882;51.550;11.858;2024-02-15T11:27:36;10.38;;;2.85;;
58083;SDS011;43882;51.550;11.858;2024-02-15T11:30:03;11.90;;;2.90;;
58083;SDS011;43882;51.550;11.858;2024-02-15T11:32:41;11.48;;;3.08;;
58083;SDS011;43882;51.550;11.858;2024-02-15T11:35:21;12.35;;;2.95;;
58083;SDS011;43882;51.550;11.858;2024-02-15T11:37:56;11.80;;;3.15;;
58083;SDS011;43882;51.550;11.858;2024-02-15T11:41:17;11.93;;;3.08;;
58083;SDS011;43882;51.550;11.858;2024-02-15T11:46:12;12.77;;;2.70;;
58083;SDS011;43882;51.550;11.858;2024-02-15T11:48:39;12.90;;;2.83;;
58083;SDS011;43882;51.550;11.858;2024-02-15T11:51:05;9.02;;;2.67;;
58083;SDS011;43882;51.550;11.858;2024-02-15T11:53:31;10.30;;;2.80;;
58083;SDS011;43882;51.550;11.858;2024-02-15T11:56:01;10.65;;;2.85;;
58083;SDS011;43882;51.550;11.858;2024-02-15T11:58:29;10.35;;;3.30;;
58083;SDS011;43882;51.550;11.858;2024-02-15T12:01:17;11.70;;;2.90;;
58083;SDS011;43882;51.550;11.858;2024-02-15T12:04:02;10.45;;;2.90;;
58083;SDS011;43882;51.550;11.858;2024-02-15T12:06:47;14.73;;;3.67;;
58083;SDS011;43882;51.550;11.858;2024-02-15T12:09:32;15.73;;;4.07;;
58083;SDS011;43882;51.550;11.858;2024-02-15T12:12:16;10.35;;;3.00;;
58083;SDS011;43882;51.550;11.858;2024-02-15T12:15:01;10.05;;;2.80;;
58083;SDS011;43882;51.550;11.858;2024-02-15T12:17:46;10.90;;;2.83;;
58083;SDS011;43882;51.550;11.858;2024-02-15T12:20:31;10.85;;;2.88;;
58083;SDS011;43882;51.550;11.858;2024-02-15T12:22:57;12.10;;;3.00;;
58083;SDS011;43882;51.550;11.858;2024-02-15T12:25:25;10.52;;;2.70;;
58083;SDS011;43882;51.550;11.858;2024-02-15T12:27:52;10.05;;;2.67;;
58083;SDS011;43882;51.550;11.858;2024-02-15T12:30:21;10.57;;;2.78;;
58083;SDS011;43882;51.550;11.858;2024-02-15T12:32:51;10.40;;;2.70;;
58083;SDS011;43882;51.550;11.858;2024-02-15T12:35:22;13.55;;;2.90;;
58083;SDS011;43882;51.550;11.858;2024-02-15T12:40:36;12.20;;;3.35;;
58083;SDS011;43882;51.550;11.858;2024-02-15T12:43:06;12.13;;;2.70;;
58083;SDS011;43882;51.550;11.858;2024-02-15T12:45:35;11.48;;;3.00;;
58083;SDS011;43882;51.550;11.858;2024-02-15T12:48:03;11.77;;;2.83;;
58083;SDS011;43882;51.550;11.858;2024-02-15T12:50:30;13.25;;;3.08;;
58083;SDS011;43882;51.550;11.858;2024-02-15T12:52:57;10.13;;;2.88;;
58083;SDS011;43882;51.550;11.858;2024-02-15T12:55:34;11.93;;;2.95;;
58083;SDS011;43882;51.550;11.858;2024-02-15T12:58:01;13.25;;;3.60;;
58083;SDS011;43882;51.550;11.858;2024-02-15T13:00:34;12.65;;;3.33;;
58083;SDS011;43882;51.550;11.858;2024-02-15T13:03:03;13.90;;;3.35;;
58083;SDS011;43882;51.550;11.858;2024-02-15T13:05:30;12.82;;;3.40;;
58083;SDS011;43882;51.550;11.858;2024-02-15T13:07:57;13.20;;;3.40;;
58083;SDS011;43882;51.550;11.858;2024-02-15T13:10:23;11.95;;;3.15;;
58083;SDS011;43882;51.550;11.858;2024-02-15T13:12:51;14.13;;;3.17;;
58083;SDS011;43882;51.550;11.858;2024-02-15T13:15:18;12.25;;;3.20;;
58083;SDS011;43882;51.550;11.858;2024-02-15T13:17:51;14.35;;;3.40;;
58083;SDS011;43882;51.550;11.858;2024-02-15T13:20:18;11.57;;;3.20;;
58083;SDS011;43882;51.550;11.858;2024-02-15T13:22:52;13.40;;;3.38;;
58083;SDS011;43882;51.550;11.858;2024-02-15T13:25:22;12.77;;;3.20;;
58083;SDS011;43882;51.550;11.858;2024-02-15T13:27:48;17.02;;;5.50;;
58083;SDS011;43882;51.550;11.858;2024-02-15T13:30:14;11.80;;;3.15;;
58083;SDS011;43882;51.550;11.858;2024-02-15T13:32:42;10.80;;;2.88;;
58083;SDS011;43882;51.550;11.858;2024-02-15T13:35:08;11.13;;;2.97;;
58083;SDS011;43882;51.550;11.858;2024-02-15T13:37:47;11.57;;;2.80;;
58083;SDS011;43882;51.550;11.858;2024-02-15T13:40:13;9.70;;;2.60;;
58083;SDS011;43882;51.550;11.858;2024-02-15T13:42:50;9.35;;;2.55;;
58083;SDS011;43882;51.550;11.858;2024-02-15T13:45:20;10.60;;;2.67;;
58083;SDS011;43882;51.550;11.858;2024-02-15T13:47:48;10.70;;;2.90;;
58083;SDS011;43882;51.550;11.858;2024-02-15T13:50:15;11.13;;;2.95;;
58083;SDS011;43882;51.550;11.858;2024-02-15T13:52:42;9.48;;;2.63;;
58083;SDS011;43882;51.550;11.858;2024-02-15T13:55:10;10.80;;;2.80;;
58083;SDS011;43882;51.550;11.858;2024-02-15T13:57:40;8.77;;;2.70;;
58083;SDS011;43882;51.550;11.858;2024-02-15T14:00:08;10.93;;;2.70;;
58083;SDS011;43882;51.550;11.858;2024-02-15T14:02:42;10.45;;;2.60;;
58083;SDS011;43882;51.550;11.858;2024-02-15T14:05:08;7.88;;;2.38;;
58083;SDS011;43882;51.550;11.858;2024-02-15T14:07:36;8.50;;;2.58;;
58083;SDS011;43882;51.550;11.858;2024-02-15T14:10:04;9.85;;;2.60;;
58083;SDS011;43882;51.550;11.858;2024-02-15T14:12:31;9.73;;;2.72;;
58083;SDS011;43882;51.550;11.858;2024-02-15T14:14:57;9.68;;;2.65;;
58083;SDS011;43882;51.550;11.858;2024-02-15T14:17:23;8.07;;;2.70;;
58083;SDS011;43882;51.550;11.858;2024-02-15T14:19:49;9.98;;;2.50;;
58083;SDS011;43882;51.550;11.858;2024-02-15T14:22:15;7.53;;;2.55;;
58083;SDS011;43882;51.550;11.858;2024-02-15T14:24:42;9.93;;;2.58;;
58083;SDS011;43882;51.550;11.858;2024-02-15T14:27:09;8.73;;;2.50;;
58083;SDS011;43882;51.550;11.858;2024-02-15T14:29:36;8.82;;;2.47;;
58083;SDS011;43882;51.550;11.858;2024-02-15T14:32:10;10.10;;;2.60;;
58083;SDS011;43882;51.550;11.858;2024-02-15T14:34:55;11.77;;;3.05;;
58083;SDS011;43882;51.550;11.858;2024-02-15T14:37:21;11.25;;;2.95;;
58083;SDS011;43882;51.550;11.858;2024-02-15T14:39:49;9.90;;;2.72;;